createdAt,value
2023-02-21T00:00:33.239Z,88.6
2023-02-21T00:01:43.345Z,88.6
2023-02-21T00:02:53.474Z,89.3
2023-02-21T00:04:03.582Z,88.8
2023-02-21T00:05:13.692Z,88.5
2023-02-21T00:06:23.818Z,87.8
2023-02-21T00:07:33.905Z,87.6
2023-02-21T00:08:44.051Z,88
2023-02-21T00:09:53.189Z,87.5
2023-02-21T00:11:03.311Z,87.4
2023-02-21T00:12:13.378Z,87.1
2023-02-21T00:13:23.550Z,87
2023-02-21T00:14:33.659Z,86.8
2023-02-21T00:15:43.739Z,86.5
2023-02-21T00:16:53.891Z,86.2
2023-02-21T00:18:03.973Z,86.9
2023-02-21T00:19:14.136Z,87.2
2023-02-21T00:20:24.256Z,87.3
2023-02-21T00:21:34.325Z,87.1
2023-02-21T00:22:43.503Z,87
2023-02-21T00:23:53.624Z,87
2023-02-21T00:25:03.747Z,86.7
2023-02-21T00:26:13.376Z,86.4
2023-02-21T00:27:23.977Z,86.2
2023-02-21T00:28:34.055Z,86.5
2023-02-21T00:29:44.231Z,86.2
2023-02-21T00:32:04.415Z,86.9
2023-02-21T00:33:14.577Z,86.3
2023-02-21T00:34:24.700Z,86.5
2023-02-21T00:35:34.769Z,86.7
2023-02-21T00:36:44.925Z,86.5
2023-02-21T00:37:54.062Z,86.6
2023-02-21T00:39:04.136Z,86.2
2023-02-21T00:40:14.309Z,86.2
2023-02-21T00:41:24.412Z,85.9
2023-02-21T00:42:34.542Z,85
2023-02-21T00:43:44.624Z,85
2023-02-21T00:44:54.780Z,85.4
2023-02-21T00:46:04.901Z,85.3
2023-02-21T00:47:14.525Z,85.7
2023-02-21T00:48:25.079Z,85.8
2023-02-21T00:49:35.242Z,85.8
2023-02-21T00:50:45.370Z,85.1
2023-02-21T00:51:55.475Z,84.9
2023-02-21T00:53:04.609Z,84.7
2023-02-21T00:54:14.727Z,84.5
2023-02-21T00:55:24.854Z,84.7
2023-02-21T00:56:34.974Z,84.1
2023-02-21T00:57:45.084Z,83.9
2023-02-21T01:00:05.323Z,83.3
2023-02-21T01:01:14.959Z,83
2023-02-21T01:02:25.554Z,82.9
2023-02-21T01:03:35.632Z,82.7
2023-02-21T01:04:45.796Z,82.3
2023-02-21T01:05:55.918Z,82.4
2023-02-21T01:07:06.039Z,81.7
2023-02-21T01:08:15.140Z,82.2
2023-02-21T01:09:25.279Z,81.8
2023-02-21T01:10:35.366Z,82
2023-02-21T01:11:45.533Z,81.6
2023-02-21T01:12:55.653Z,80.8
2023-02-21T01:14:05.758Z,81.1
2023-02-21T01:15:15.393Z,80.8
2023-02-21T01:16:25.995Z,80.4
2023-02-21T01:17:36.107Z,80.8
2023-02-21T01:18:46.230Z,80.5
2023-02-21T01:19:56.350Z,80.4
2023-02-21T01:21:06.469Z,79.6
2023-02-21T01:22:16.589Z,79.3
2023-02-21T01:23:25.678Z,79.6
2023-02-21T01:24:35.797Z,79.7
2023-02-21T01:25:45.912Z,79.4
2023-02-21T01:26:56.087Z,79.1
2023-02-21T01:28:06.190Z,79.3
2023-02-21T01:29:16.310Z,79
2023-02-21T01:30:26.435Z,78.5
2023-02-21T01:31:36.551Z,78.7
2023-02-21T01:32:46.632Z,79
2023-02-21T01:33:56.780Z,79.2
2023-02-21T01:35:06.903Z,79.4
2023-02-21T01:36:16.976Z,79.2
2023-02-21T01:37:27.102Z,79.7
2023-02-21T01:38:36.235Z,79.8
2023-02-21T01:39:46.403Z,79.1
2023-02-21T01:40:56.522Z,79.7
2023-02-21T01:42:06.591Z,80.5
2023-02-21T01:43:16.751Z,80.6
2023-02-21T01:44:26.869Z,81
2023-02-21T01:45:36.948Z,80.7
2023-02-21T01:46:47.098Z,81.3
2023-02-21T01:47:57.222Z,81
2023-02-21T01:49:07.335Z,81.3
2023-02-21T01:50:17.461Z,81.1
2023-02-21T01:51:27.530Z,81
2023-02-21T01:52:37.648Z,81.2
2023-02-21T01:53:46.821Z,81.4
2023-02-21T01:54:56.943Z,80.8
2023-02-21T01:56:07.019Z,81.5
2023-02-21T01:57:17.190Z,81.2
2023-02-21T01:58:27.267Z,81.2
2023-02-21T01:59:37.412Z,80.8
2023-02-21T02:00:47.534Z,80.7
2023-02-21T02:03:07.728Z,80.2
2023-02-21T02:04:17.401Z,80.2
2023-02-21T02:05:28.006Z,80.7
2023-02-21T02:06:38.123Z,80.8
2023-02-21T02:07:48.197Z,80.8
2023-02-21T02:08:57.393Z,80.1
2023-02-21T02:10:07.000Z,80.3
2023-02-21T02:11:17.616Z,80
2023-02-21T02:12:27.692Z,80.5
2023-02-21T02:13:37.860Z,80.4
2023-02-21T02:14:47.967Z,80.2
2023-02-21T02:15:58.044Z,80.3
2023-02-21T02:17:08.215Z,79.9
2023-02-21T02:18:18.338Z,79.6
2023-02-21T02:19:28.444Z,79.7
2023-02-21T02:20:38.514Z,80.7
2023-02-21T02:21:48.640Z,80.6
2023-02-21T02:22:58.758Z,80.9
2023-02-21T02:24:07.889Z,80.3
2023-02-21T02:25:18.009Z,81.1
2023-02-21T02:26:28.125Z,81.3
2023-02-21T02:27:38.287Z,80.8
2023-02-21T02:28:48.408Z,80.8
2023-02-21T02:29:58.531Z,80.8
2023-02-21T02:31:08.655Z,81.2
2023-02-21T02:32:18.718Z,81.5
2023-02-21T02:33:28.879Z,80.7
2023-02-21T02:34:38.998Z,80.9
2023-02-21T02:35:49.116Z,81.3
2023-02-21T02:36:59.241Z,81.6
2023-02-21T02:38:09.364Z,81.8
2023-02-21T02:39:18.497Z,80.8
2023-02-21T02:40:28.619Z,80.6
2023-02-21T02:41:38.721Z,81.1
2023-02-21T02:42:48.844Z,81.3
2023-02-21T02:43:58.964Z,81.7
2023-02-21T02:45:09.033Z,81.5
2023-02-21T02:46:19.201Z,81.6
2023-02-21T02:47:29.276Z,81.5
2023-02-21T02:48:39.430Z,81.7
2023-02-21T02:49:49.552Z,82.2
2023-02-21T02:50:59.624Z,82.2
2023-02-21T02:52:09.788Z,82.7
2023-02-21T02:53:19.908Z,82.4
2023-02-21T02:54:29.001Z,83.2
2023-02-21T02:55:39.123Z,83.1
2023-02-21T02:56:49.232Z,82.8
2023-02-21T02:57:59.394Z,83
2023-02-21T02:59:09.511Z,82.8
2023-02-21T03:00:19.632Z,83
2023-02-21T03:01:29.719Z,83
2023-02-21T03:02:39.869Z,83
2023-02-21T03:03:49.943Z,82.6
2023-02-21T03:05:00.117Z,82.8
2023-02-21T03:06:10.221Z,83.3
2023-02-21T03:07:19.842Z,83
2023-02-21T03:08:30.464Z,83.6
2023-02-21T03:09:39.591Z,83.8
2023-02-21T03:10:49.670Z,83.4
2023-02-21T03:13:09.912Z,83.8
2023-02-21T03:14:20.025Z,83.1
2023-02-21T03:15:30.146Z,82.9
2023-02-21T03:16:40.260Z,83
2023-02-21T03:17:50.391Z,82.6
2023-02-21T03:19:00.501Z,83.1
2023-02-21T03:20:10.617Z,83.9
2023-02-21T03:21:20.742Z,83.8
2023-02-21T03:22:30.850Z,84.1
2023-02-21T03:23:40.975Z,83.3
2023-02-21T03:24:50.104Z,83.2
2023-02-21T03:26:00.227Z,83.2
2023-02-21T03:27:10.339Z,83.2
2023-02-21T03:28:20.462Z,83.8
2023-02-21T03:29:30.578Z,84
2023-02-21T03:30:40.698Z,82.8
2023-02-21T03:31:50.825Z,83.8
2023-02-21T03:33:00.933Z,83.4
2023-02-21T03:34:11.048Z,83.1
2023-02-21T03:35:21.167Z,82.8
2023-02-21T03:36:31.289Z,82.5
2023-02-21T03:37:41.413Z,82.2
2023-02-21T03:38:51.522Z,81.7
2023-02-21T03:40:00.672Z,81.9
2023-02-21T03:41:10.779Z,82
2023-02-21T03:42:20.900Z,81.9
2023-02-21T03:43:31.014Z,81.7
2023-02-21T03:44:41.144Z,82
2023-02-21T03:45:51.252Z,81.5
2023-02-21T03:47:01.373Z,81.8
2023-02-21T03:48:11.499Z,81.8
2023-02-21T03:49:21.601Z,80.7
2023-02-21T03:50:31.722Z,81.2
2023-02-21T03:51:41.856Z,81.6
2023-02-21T03:52:51.960Z,81.2
2023-02-21T03:54:02.082Z,81.9
2023-02-21T03:55:11.218Z,82.6
2023-02-21T03:56:20.878Z,82.3
2023-02-21T03:57:31.459Z,81.8
2023-02-21T03:58:41.580Z,81.8
2023-02-21T03:59:51.700Z,82.2
2023-02-21T04:01:01.811Z,82.3
2023-02-21T04:02:11.930Z,82.2
2023-02-21T04:03:22.056Z,82.1
2023-02-21T04:04:32.169Z,81.7
2023-02-21T04:05:42.290Z,82.3
2023-02-21T04:06:52.411Z,82
2023-02-21T04:08:02.527Z,81.1
2023-02-21T04:09:12.638Z,81.7
2023-02-21T04:10:21.769Z,81.7
2023-02-21T04:11:31.885Z,81
2023-02-21T04:12:41.549Z,81.4
2023-02-21T04:13:52.130Z,81.5
2023-02-21T04:15:02.250Z,81.2
2023-02-21T04:16:12.366Z,81
2023-02-21T04:17:21.505Z,81.2
2023-02-21T04:18:31.621Z,81.2
2023-02-21T04:19:41.740Z,81.1
2023-02-21T04:20:51.866Z,81.3
2023-02-21T04:22:01.984Z,81.4
2023-02-21T04:23:12.101Z,81.1
2023-02-21T04:24:22.205Z,81.3
2023-02-21T04:25:31.871Z,81.3
2023-02-21T04:26:42.449Z,81.5
2023-02-21T04:27:52.572Z,81.3
2023-02-21T04:29:02.693Z,81
2023-02-21T04:30:12.797Z,80.8
2023-02-21T04:31:22.922Z,80.8
2023-02-21T04:32:33.157Z,80.8
2023-02-21T04:33:43.278Z,81.2
2023-02-21T04:34:53.400Z,80.8
2023-02-21T04:36:03.521Z,80.6
2023-02-21T04:37:13.642Z,80.8
2023-02-21T04:38:23.754Z,80.4
2023-02-21T04:39:33.863Z,80.4
2023-02-21T04:40:43.983Z,80.8
2023-02-21T04:41:54.115Z,79.8
2023-02-21T04:44:14.349Z,79.6
2023-02-21T04:45:23.998Z,80.1
2023-02-21T04:46:34.579Z,81
2023-02-21T04:47:43.709Z,80.6
2023-02-21T04:48:53.825Z,80.5
2023-02-21T04:51:14.070Z,80.5
2023-02-21T04:52:24.190Z,80.6
2023-02-21T04:53:34.304Z,80.4
2023-02-21T04:54:44.431Z,80.4
2023-02-21T04:55:54.534Z,80.3
2023-02-21T04:57:04.658Z,80.2
2023-02-21T04:58:14.779Z,80.2
2023-02-21T04:59:24.904Z,80.3
2023-02-21T05:00:35.023Z,80.5
2023-02-21T05:01:45.134Z,80.4
2023-02-21T05:02:54.264Z,80.4
2023-02-21T05:04:04.382Z,80.6
2023-02-21T05:05:14.504Z,80.3
2023-02-21T05:06:24.000Z,80.5
2023-02-21T05:07:34.744Z,80
2023-02-21T05:08:44.852Z,80
2023-02-21T05:09:54.968Z,80
2023-02-21T05:11:05.093Z,80.3
2023-02-21T05:12:15.203Z,79.8
2023-02-21T05:13:25.325Z,80
2023-02-21T05:14:35.453Z,79.8
2023-02-21T05:15:45.566Z,79.9
2023-02-21T05:16:55.674Z,80.4
2023-02-21T05:18:04.823Z,80.3
2023-02-21T05:19:14.941Z,80
2023-02-21T05:20:25.044Z,80.2
2023-02-21T05:21:35.166Z,79.9
2023-02-21T05:22:45.284Z,80.2
2023-02-21T05:23:55.405Z,79.7
2023-02-21T05:25:05.522Z,79.8
2023-02-21T05:26:15.645Z,80.1
2023-02-21T05:27:25.766Z,79.8
2023-02-21T05:28:35.880Z,80
2023-02-21T05:29:46.001Z,80.4
2023-02-21T05:30:56.119Z,80.4
2023-02-21T05:32:06.234Z,79.5
2023-02-21T05:33:15.379Z,79.9
2023-02-21T05:34:25.500Z,79.2
2023-02-21T05:35:35.599Z,78.9
2023-02-21T05:36:45.736Z,78.3
2023-02-21T05:37:55.854Z,79.4
2023-02-21T05:39:05.961Z,79.2
2023-02-21T05:40:16.080Z,79
2023-02-21T05:41:26.194Z,78.7
2023-02-21T05:42:36.315Z,78.9
2023-02-21T05:43:45.966Z,79
2023-02-21T05:44:56.559Z,78.9
2023-02-21T05:46:06.680Z,79.3
2023-02-21T05:47:16.797Z,79.1
2023-02-21T05:48:25.929Z,79
2023-02-21T05:49:36.039Z,78.7
2023-02-21T05:50:46.167Z,79
2023-02-21T05:51:56.266Z,78.6
2023-02-21T05:54:16.507Z,78.3
2023-02-21T05:55:26.631Z,78.6
2023-02-21T05:56:36.742Z,78.7
2023-02-21T05:57:46.879Z,78.5
2023-02-21T05:58:56.988Z,78.7
2023-02-21T06:00:07.106Z,79.2
2023-02-21T06:01:17.221Z,78.8
2023-02-21T06:02:27.351Z,78.8
2023-02-21T06:03:36.474Z,78.6
2023-02-21T06:04:46.598Z,79.4
2023-02-21T06:05:56.700Z,79.8
2023-02-21T06:08:16.945Z,79.5
2023-02-21T06:09:27.328Z,79.7
2023-02-21T06:10:37.181Z,78.6
2023-02-21T06:11:47.291Z,79.5
2023-02-21T06:12:57.414Z,79.9
2023-02-21T06:15:17.660Z,80.2
2023-02-21T06:16:26.802Z,79.6
2023-02-21T06:17:35.940Z,80
2023-02-21T06:18:46.064Z,80.3
2023-02-21T06:19:56.181Z,80
2023-02-21T06:21:06.293Z,79
2023-02-21T06:22:16.411Z,79.4
2023-02-21T06:23:26.061Z,79.7
2023-02-21T06:24:36.652Z,79.9
2023-02-21T06:25:46.759Z,80.3
2023-02-21T06:26:56.875Z,80
2023-02-21T06:28:06.994Z,79.4
2023-02-21T06:29:16.143Z,80
2023-02-21T06:30:25.272Z,79.7
2023-02-21T06:31:35.398Z,79.9
2023-02-21T06:32:45.516Z,80.1
2023-02-21T06:33:55.636Z,79.4
2023-02-21T06:35:05.763Z,79.8
2023-02-21T06:36:15.867Z,80
2023-02-21T06:37:25.987Z,80
2023-02-21T06:38:36.104Z,80.2
2023-02-21T06:39:46.222Z,79.3
2023-02-21T06:40:56.339Z,79.5
2023-02-21T06:42:06.465Z,79.5
2023-02-21T06:43:16.570Z,79.6
2023-02-21T06:44:26.701Z,79.9
2023-02-21T06:45:35.833Z,79.7
2023-02-21T06:46:45.956Z,79.4
2023-02-21T06:47:56.079Z,79.6
2023-02-21T06:50:16.304Z,79.2
2023-02-21T06:51:26.426Z,79.5
2023-02-21T06:52:36.545Z,79.8
2023-02-21T06:53:46.658Z,79.6
2023-02-21T06:54:56.787Z,79.5
2023-02-21T06:56:06.909Z,79.3
2023-02-21T06:57:17.015Z,79.5
2023-02-21T06:58:27.134Z,79.7
2023-02-21T06:59:37.247Z,79.5
2023-02-21T07:00:46.379Z,79.7
2023-02-21T07:01:56.502Z,79.2
2023-02-21T07:03:06.627Z,79.5
2023-02-21T07:04:16.746Z,79.1
2023-02-21T07:05:26.848Z,78.6
2023-02-21T07:06:36.985Z,78.3
2023-02-21T07:07:47.091Z,78.5
2023-02-21T07:08:57.205Z,78.6
2023-02-21T07:10:07.329Z,78.7
2023-02-21T07:11:17.440Z,78.4
2023-02-21T07:12:27.580Z,78.2
2023-02-21T07:13:37.000Z,78.1
2023-02-21T07:14:47.802Z,78.6
2023-02-21T07:15:56.946Z,78.1
2023-02-21T07:17:07.052Z,77.9
2023-02-21T07:18:17.165Z,77.9
2023-02-21T07:19:27.296Z,78.1
2023-02-21T07:20:37.401Z,77.9
2023-02-21T07:21:47.533Z,77.8
2023-02-21T07:22:57.653Z,77.2
2023-02-21T07:25:17.877Z,77.5
2023-02-21T07:26:27.995Z,77.7
2023-02-21T07:27:38.120Z,77.3
2023-02-21T07:28:48.234Z,77
2023-02-21T07:29:58.357Z,76.9
2023-02-21T07:31:07.494Z,77.1
2023-02-21T07:32:17.610Z,76.4
2023-02-21T07:33:27.736Z,76
2023-02-21T07:34:37.854Z,76.3
2023-02-21T07:35:47.956Z,76.3
2023-02-21T07:36:58.090Z,75.8
2023-02-21T07:38:08.212Z,76.5
2023-02-21T07:39:18.314Z,76.6
2023-02-21T07:40:28.445Z,76.6
2023-02-21T07:41:38.544Z,76.7
2023-02-21T07:42:48.680Z,76.3
2023-02-21T07:43:58.781Z,76.7
2023-02-21T07:45:08.922Z,76.1
2023-02-21T07:46:18.038Z,76.7
2023-02-21T07:47:28.155Z,76.2
2023-02-21T07:48:38.275Z,76
2023-02-21T07:49:48.394Z,76.1
2023-02-21T07:50:58.505Z,76
2023-02-21T07:52:08.641Z,76
2023-02-21T07:53:18.758Z,75.1
2023-02-21T07:54:28.872Z,75
2023-02-21T07:55:38.988Z,75.2
2023-02-21T07:56:49.100Z,75.5
2023-02-21T07:57:59.230Z,75
2023-02-21T07:59:09.340Z,75.4
2023-02-21T08:00:19.464Z,75.4
2023-02-21T08:01:28.594Z,75.3
2023-02-21T08:02:38.705Z,75.9
2023-02-21T08:03:48.845Z,75
2023-02-21T08:04:58.959Z,74.8
2023-02-21T08:06:09.074Z,75.2
2023-02-21T08:07:19.182Z,75.3
2023-02-21T08:08:29.308Z,74.5
2023-02-21T08:09:39.413Z,74.8
2023-02-21T08:10:49.544Z,75.1
2023-02-21T08:11:58.693Z,74.5
2023-02-21T08:13:08.796Z,74.5
2023-02-21T08:14:18.912Z,74.9
2023-02-21T08:15:29.023Z,75
2023-02-21T08:16:39.149Z,75.4
2023-02-21T08:17:49.281Z,74.7
2023-02-21T08:18:59.388Z,74.8
2023-02-21T08:20:09.514Z,75.5
2023-02-21T08:21:19.625Z,75.2
2023-02-21T08:22:29.740Z,74.5
2023-02-21T08:23:39.865Z,74.4
2023-02-21T08:24:49.988Z,75
2023-02-21T08:26:00.103Z,74.3
2023-02-21T08:27:09.231Z,75
2023-02-21T08:28:19.341Z,76
2023-02-21T08:29:29.463Z,76.1
2023-02-21T08:30:39.584Z,75.6
2023-02-21T08:31:49.714Z,76.1
2023-02-21T08:32:59.820Z,76.6
2023-02-21T08:35:20.068Z,75.6
2023-02-21T08:36:30.171Z,76.6
2023-02-21T08:37:40.290Z,76.8
2023-02-21T08:38:50.411Z,76.8
2023-02-21T08:40:00.540Z,76.2
2023-02-21T08:41:10.645Z,76.8
2023-02-21T08:42:19.777Z,77.4
2023-02-21T08:43:29.897Z,77
2023-02-21T08:44:40.008Z,76.6
2023-02-21T08:45:50.135Z,76.4
2023-02-21T08:47:00.254Z,75.2
2023-02-21T08:48:10.382Z,75.5
2023-02-21T08:49:20.501Z,75.4
2023-02-21T08:50:30.621Z,75.8
2023-02-21T08:51:40.985Z,75.8
2023-02-21T08:52:50.846Z,75.1
2023-02-21T08:54:00.971Z,75.1
2023-02-21T08:55:11.091Z,74.4
2023-02-21T08:56:21.197Z,74.6
2023-02-21T08:57:30.329Z,73.8
2023-02-21T08:58:40.449Z,74.1
2023-02-21T08:59:50.575Z,74.4
2023-02-21T09:01:00.686Z,74.1
2023-02-21T09:02:10.804Z,74.1
2023-02-21T09:03:20.927Z,74.4
2023-02-21T09:04:31.050Z,73.9
2023-02-21T09:05:41.154Z,72.6
2023-02-21T09:06:51.279Z,74.2
2023-02-21T09:08:01.387Z,73.4
2023-02-21T09:09:11.520Z,73.2
2023-02-21T09:10:21.636Z,73.7
2023-02-21T09:11:31.758Z,73.2
2023-02-21T09:12:40.886Z,73.2
2023-02-21T09:13:51.002Z,72.5
2023-02-21T09:15:01.135Z,72.1
2023-02-21T09:17:21.350Z,72.1
2023-02-21T09:18:31.470Z,72.5
2023-02-21T09:19:41.598Z,72.8
2023-02-21T09:20:51.704Z,72.7
2023-02-21T09:22:01.822Z,73
2023-02-21T09:23:11.961Z,72.3
2023-02-21T09:24:22.064Z,72.2
2023-02-21T09:25:32.192Z,72.2
2023-02-21T09:26:42.297Z,73
2023-02-21T09:27:51.431Z,73
2023-02-21T09:29:01.550Z,72.5
2023-02-21T09:30:11.674Z,72.9
2023-02-21T09:31:21.802Z,72.8
2023-02-21T09:32:31.900Z,72.5
2023-02-21T09:33:42.024Z,72.7
2023-02-21T09:34:52.143Z,72.1
2023-02-21T09:36:02.259Z,70.9
2023-02-21T09:37:12.385Z,71.4
2023-02-21T09:38:22.492Z,71.8
2023-02-21T09:39:32.611Z,71.3
2023-02-21T09:40:42.728Z,71.6
2023-02-21T09:41:52.852Z,72
2023-02-21T09:43:01.992Z,72
2023-02-21T09:44:12.088Z,71.1
2023-02-21T09:45:22.220Z,72.1
2023-02-21T09:46:32.343Z,72.3
2023-02-21T09:47:42.467Z,72.4
2023-02-21T09:48:52.568Z,71.5
2023-02-21T09:50:02.688Z,71.3
2023-02-21T09:51:12.802Z,70.8
2023-02-21T09:52:22.925Z,70.2
2023-02-21T09:53:33.051Z,70.3
2023-02-21T09:54:43.177Z,70.9
2023-02-21T09:55:53.284Z,70.6
2023-02-21T09:57:03.393Z,71.5
2023-02-21T09:58:12.545Z,71.8
2023-02-21T09:59:22.651Z,71.1
2023-02-21T10:00:32.784Z,71.4
2023-02-21T10:01:42.895Z,71
2023-02-21T10:02:53.004Z,70.3
2023-02-21T10:04:03.111Z,70.5
2023-02-21T10:06:23.354Z,70.3
2023-02-21T10:07:33.477Z,69.4
2023-02-21T10:08:43.602Z,69.7
2023-02-21T10:09:53.719Z,70.4
2023-02-21T10:11:03.838Z,70.2
2023-02-21T10:12:13.941Z,69.9
2023-02-21T10:13:23.085Z,70.7
2023-02-21T10:14:33.196Z,71
2023-02-21T10:15:43.324Z,70.2
2023-02-21T10:16:53.446Z,69.8
2023-02-21T10:18:03.568Z,69.8
2023-02-21T10:19:13.690Z,68.9
2023-02-21T10:20:23.801Z,70.1
2023-02-21T10:21:33.917Z,70.3
2023-02-21T10:22:44.043Z,69.7
2023-02-21T10:23:54.143Z,69.2
2023-02-21T10:25:04.265Z,68.9
2023-02-21T10:26:14.384Z,68.6
2023-02-21T10:27:24.508Z,68.4
2023-02-21T10:28:33.640Z,68.8
2023-02-21T10:29:43.764Z,68.4
2023-02-21T10:30:53.878Z,68
2023-02-21T10:32:03.993Z,68.7
2023-02-21T10:33:14.117Z,68.7
2023-02-21T10:34:24.227Z,68.5
2023-02-21T10:35:34.000Z,68.9
2023-02-21T10:36:44.450Z,68.7
2023-02-21T10:37:54.578Z,68.3
2023-02-21T10:39:04.703Z,68.2
2023-02-21T10:40:14.822Z,68.3
2023-02-21T10:41:24.922Z,67.9
2023-02-21T10:42:35.050Z,67.3
2023-02-21T10:43:44.183Z,66.8
2023-02-21T10:44:54.306Z,66.6
2023-02-21T10:46:04.430Z,66.8
2023-02-21T10:47:14.530Z,67.1
2023-02-21T10:48:24.670Z,67.2
2023-02-21T10:49:34.783Z,68.3
2023-02-21T10:50:44.885Z,66.4
2023-02-21T10:51:54.995Z,66.7
2023-02-21T10:53:05.145Z,66.8
2023-02-21T10:54:15.232Z,66.4
2023-02-21T10:55:25.376Z,67.4
2023-02-21T10:56:35.470Z,67.7
2023-02-21T10:57:45.602Z,67
2023-02-21T10:58:54.733Z,67.6
2023-02-21T11:00:04.847Z,66.6
2023-02-21T11:01:14.972Z,66.3
2023-02-21T11:02:25.086Z,67.4
2023-02-21T11:03:35.189Z,67.6
2023-02-21T11:04:45.315Z,67
2023-02-21T11:05:55.446Z,66.8
2023-02-21T11:07:05.570Z,66.5
2023-02-21T11:08:15.691Z,64.8
2023-02-21T11:09:25.811Z,65.6
2023-02-21T11:10:35.912Z,67.4
2023-02-21T11:11:46.034Z,67.2
2023-02-21T11:12:56.141Z,66.5
2023-02-21T11:14:05.288Z,66
2023-02-21T11:15:15.395Z,66.5
2023-02-21T11:16:25.518Z,66
2023-02-21T11:17:35.643Z,66
2023-02-21T11:18:45.760Z,65.9
2023-02-21T11:19:55.890Z,66.8
2023-02-21T11:21:05.991Z,67.3
2023-02-21T11:22:16.118Z,66.4
2023-02-21T11:23:26.223Z,66.6
2023-02-21T11:24:36.346Z,66.4
2023-02-21T11:25:46.468Z,65.4
2023-02-21T11:26:56.577Z,66.3
2023-02-21T11:28:06.692Z,65
2023-02-21T11:29:15.849Z,65.7
2023-02-21T11:30:25.968Z,64.8
2023-02-21T11:31:36.062Z,66.1
2023-02-21T11:32:46.186Z,66.5
2023-02-21T11:33:56.310Z,66.2
2023-02-21T11:35:06.420Z,66.7
2023-02-21T11:36:16.555Z,65.9
2023-02-21T11:37:26.674Z,64.1
2023-02-21T11:38:36.775Z,64.9
2023-02-21T11:39:47.153Z,64.6
2023-02-21T11:40:57.011Z,65
2023-02-21T11:42:07.135Z,65.7
2023-02-21T11:43:17.254Z,65.1
2023-02-21T11:44:26.395Z,65.5
2023-02-21T11:45:36.513Z,64.5
2023-02-21T11:46:46.635Z,65.1
2023-02-21T11:47:56.735Z,64.8
2023-02-21T11:49:06.856Z,64.9
2023-02-21T11:50:16.978Z,65.3
2023-02-21T11:51:27.090Z,64.9
2023-02-21T11:52:37.198Z,65.2
2023-02-21T11:53:47.331Z,65
2023-02-21T11:54:57.447Z,64.4
2023-02-21T11:56:07.575Z,64.3
2023-02-21T11:58:27.798Z,62.9
2023-02-21T11:59:36.929Z,63.8
2023-02-21T12:00:47.050Z,64.3
2023-02-21T12:01:57.166Z,64.1
2023-02-21T12:03:07.289Z,64.6
2023-02-21T12:04:17.411Z,63.8
2023-02-21T12:05:27.526Z,63.3
2023-02-21T12:06:36.647Z,64.1
2023-02-21T12:07:46.780Z,64
2023-02-21T12:08:56.908Z,64
2023-02-21T12:10:07.007Z,64.8
2023-02-21T12:11:17.138Z,65.1
2023-02-21T12:12:27.230Z,64.5
2023-02-21T12:13:37.349Z,65.5
2023-02-21T12:14:47.478Z,64.4
2023-02-21T12:15:57.611Z,64.1
2023-02-21T12:17:07.739Z,65
2023-02-21T12:18:17.849Z,63.3
2023-02-21T12:19:27.969Z,64
2023-02-21T12:20:38.076Z,63.1
2023-02-21T12:21:47.191Z,62.6
2023-02-21T12:22:57.332Z,63.6
2023-02-21T12:24:07.438Z,63.6
2023-02-21T12:26:27.693Z,63.9
2023-02-21T12:27:37.813Z,63.8
2023-02-21T12:28:47.917Z,63.1
2023-02-21T12:29:58.023Z,63.5
2023-02-21T12:31:08.166Z,62.8
2023-02-21T12:32:18.273Z,63
2023-02-21T12:33:28.397Z,62.9
2023-02-21T12:34:38.516Z,63.6
2023-02-21T12:35:48.628Z,63
2023-02-21T12:36:57.760Z,62.7
2023-02-21T12:38:07.886Z,62.8
2023-02-21T12:39:17.996Z,64.4
2023-02-21T12:40:28.112Z,63.8
2023-02-21T12:41:38.233Z,62.9
2023-02-21T12:42:48.350Z,63
2023-02-21T12:43:58.477Z,62.9
2023-02-21T12:45:08.579Z,62
2023-02-21T12:46:18.720Z,61.9
2023-02-21T12:47:28.822Z,62.1
2023-02-21T12:48:38.956Z,61.6
2023-02-21T12:49:49.062Z,61.2
2023-02-21T12:50:59.157Z,61.6
2023-02-21T12:52:08.310Z,60.8
2023-02-21T12:53:18.434Z,62
2023-02-21T12:54:28.555Z,61.6
2023-02-21T12:55:38.658Z,62.4
2023-02-21T12:56:48.781Z,61.9
2023-02-21T12:57:58.898Z,62
2023-02-21T12:59:09.015Z,62.4
2023-02-21T13:00:19.136Z,62
2023-02-21T13:01:29.260Z,61.9
2023-02-21T13:02:39.366Z,62.7
2023-02-21T13:03:49.492Z,62.9
2023-02-21T13:04:59.599Z,61.9
2023-02-21T13:06:09.726Z,62.9
2023-02-21T13:07:18.868Z,61.4
2023-02-21T13:08:28.970Z,61.9
2023-02-21T13:09:39.087Z,61.8
2023-02-21T13:10:49.227Z,62.2
2023-02-21T13:11:59.348Z,61.6
2023-02-21T13:13:09.447Z,62.4
2023-02-21T13:14:19.567Z,63
2023-02-21T13:15:29.683Z,63.3
2023-02-21T13:16:39.804Z,63.4
2023-02-21T13:17:49.934Z,64.3
2023-02-21T13:19:00.039Z,64.7
2023-02-21T13:20:10.156Z,64.7
2023-02-21T13:21:20.279Z,63.8
2023-02-21T13:22:29.420Z,65.9
2023-02-21T13:23:39.541Z,66
2023-02-21T13:24:49.646Z,66.5
2023-02-21T13:25:59.766Z,66.6
2023-02-21T13:27:09.887Z,66.8
2023-02-21T13:28:20.009Z,66.8
2023-02-21T13:29:30.134Z,67
2023-02-21T13:30:40.241Z,67.2
2023-02-21T13:31:50.343Z,67
2023-02-21T13:33:00.475Z,66.7
2023-02-21T13:34:10.579Z,66.7
2023-02-21T13:35:20.715Z,67.7
2023-02-21T13:36:30.834Z,68.1
2023-02-21T13:37:39.970Z,67
2023-02-21T13:38:50.068Z,66.8
2023-02-21T13:40:00.187Z,67.1
2023-02-21T13:41:10.315Z,67
2023-02-21T13:42:20.438Z,67
2023-02-21T13:43:30.541Z,67.4
2023-02-21T13:44:40.677Z,67.2
2023-02-21T13:45:50.797Z,67.5
2023-02-21T13:47:00.905Z,67.2
2023-02-21T13:48:11.033Z,67.5
2023-02-21T13:49:21.131Z,67.2
2023-02-21T13:50:31.265Z,67
2023-02-21T13:51:41.396Z,67.6
2023-02-21T13:52:50.525Z,67.3
2023-02-21T13:54:00.636Z,66.9
2023-02-21T13:55:10.750Z,66.7
2023-02-21T13:57:30.988Z,66.4
2023-02-21T13:58:41.105Z,65.8
2023-02-21T13:59:51.219Z,66
2023-02-21T14:01:01.348Z,66.4
2023-02-21T14:02:11.452Z,66.2
2023-02-21T14:03:21.577Z,66.3
2023-02-21T14:04:31.698Z,66.3
2023-02-21T14:05:41.809Z,66.4
2023-02-21T14:06:51.929Z,66.8
2023-02-21T14:08:01.076Z,65.9
2023-02-21T14:09:11.191Z,66
2023-02-21T14:10:21.309Z,66.1
2023-02-21T14:11:31.406Z,67.1
2023-02-21T14:12:41.550Z,66.7
2023-02-21T14:13:51.660Z,65.9
2023-02-21T14:15:01.783Z,67
2023-02-21T14:16:11.890Z,66.8
2023-02-21T14:17:22.018Z,67.3
2023-02-21T14:18:32.120Z,67
2023-02-21T14:19:42.218Z,67.1
2023-02-21T14:20:52.361Z,67.6
2023-02-21T14:22:02.481Z,67.3
2023-02-21T14:23:11.617Z,67.1
2023-02-21T14:24:21.738Z,67.3
2023-02-21T14:25:31.847Z,68.1
2023-02-21T14:26:41.949Z,67
2023-02-21T14:27:52.085Z,67.3
2023-02-21T14:29:02.210Z,67.9
2023-02-21T14:30:12.322Z,67.6
2023-02-21T14:31:22.414Z,67.6
2023-02-21T14:32:32.573Z,67.5
2023-02-21T14:33:42.676Z,67.7
2023-02-21T14:34:52.803Z,67
2023-02-21T14:36:02.925Z,67.2
2023-02-21T14:37:13.030Z,66.7
2023-02-21T14:38:22.174Z,66.2
2023-02-21T14:39:32.290Z,66.1
2023-02-21T14:40:42.413Z,66.2
2023-02-21T14:41:52.518Z,66.5
2023-02-21T14:43:02.634Z,65.5
2023-02-21T14:44:12.768Z,65.8
2023-02-21T14:45:22.871Z,64.7
2023-02-21T14:46:32.994Z,64.9
2023-02-21T14:47:43.101Z,64.8
2023-02-21T14:48:53.223Z,64.7
2023-02-21T14:50:03.346Z,64.7
2023-02-21T14:51:13.459Z,64.6
2023-02-21T14:52:23.580Z,64.6
2023-02-21T14:53:32.969Z,64.5
2023-02-21T14:54:42.832Z,64.7
2023-02-21T14:55:52.938Z,64.9
2023-02-21T14:57:03.085Z,64.7
2023-02-21T14:58:13.185Z,64.8
2023-02-21T14:59:23.309Z,64.4
2023-02-21T15:00:33.430Z,65.6
2023-02-21T15:01:43.526Z,66
2023-02-21T15:02:53.650Z,66.2
2023-02-21T15:04:03.777Z,66.7
2023-02-21T15:05:13.899Z,66.5
2023-02-21T15:07:34.125Z,66.9
2023-02-21T15:08:43.263Z,66.3
2023-02-21T15:09:53.385Z,65.8
2023-02-21T15:11:03.508Z,65.4
2023-02-21T15:12:13.625Z,65.9
2023-02-21T15:13:23.743Z,66.3
2023-02-21T15:14:33.866Z,65.9
2023-02-21T15:15:43.988Z,66.7
2023-02-21T15:16:54.092Z,66.3
2023-02-21T15:18:04.215Z,66.7
2023-02-21T15:19:14.327Z,66.3
2023-02-21T15:20:24.455Z,65.9
2023-02-21T15:21:34.573Z,65.2
2023-02-21T15:22:44.687Z,65.6
2023-02-21T15:23:53.826Z,65.8
2023-02-21T15:25:03.933Z,65.5
2023-02-21T15:26:14.054Z,65.5
2023-02-21T15:27:24.179Z,65.6
2023-02-21T15:28:34.302Z,65.6
2023-02-21T15:29:44.405Z,66.9
2023-02-21T15:30:54.512Z,67.1
2023-02-21T15:32:04.635Z,67.2
2023-02-21T15:33:14.771Z,66.6
2023-02-21T15:34:24.881Z,66.3
2023-02-21T15:35:34.986Z,66.4
2023-02-21T15:36:45.086Z,66.4
2023-02-21T15:37:55.222Z,66.7
2023-02-21T15:39:05.465Z,67.1
2023-02-21T15:40:15.585Z,68.4
2023-02-21T15:42:35.837Z,68.6
2023-02-21T15:44:56.075Z,68.5
2023-02-21T15:46:06.178Z,68.8
2023-02-21T15:47:16.304Z,68
2023-02-21T15:48:26.429Z,67.9
2023-02-21T15:49:36.546Z,68.5
2023-02-21T15:50:46.632Z,68.8
2023-02-21T15:51:56.770Z,69.3
2023-02-21T15:53:06.879Z,69.1
2023-02-21T15:54:16.013Z,70
2023-02-21T15:55:26.148Z,69.9
2023-02-21T15:56:36.246Z,70.1
2023-02-21T15:57:46.373Z,70.4
2023-02-21T15:58:56.498Z,70.6
2023-02-21T16:00:06.616Z,70.7
2023-02-21T16:01:15.742Z,70.9
2023-02-21T16:02:25.874Z,71
2023-02-21T16:03:35.995Z,71.2